Time;durP1;ratioP1;P1;durP2;ratioP2;P2;SDS_P1;SDS_P2;PMS_P1;PMS_P2;Temp;Humidity;BMP_temperature;BMP_pressure;BME280_temperature;BME280_humidity;BME280_pressure;Samples;Min_cycle;Max_cycle;Signal;HPM_P1;HPM_P2
2023/03/11 00:00:53;;;;;;;1999.90;999.90;;;1.70;99.90;;;;;;6645639;89;20248;-76
2023/03/11 00:10:57;;;;;;;1999.90;999.90;;;1.80;99.90;;;;;;6643575;89;20600;-75
2023/03/11 00:20:59;;;;;;;1999.90;999.90;;;1.90;99.90;;;;;;6648245;89;20273;-75
2023/03/11 00:31:01;;;;;;;1999.90;999.90;;;1.90;99.90;;;;;;6650237;89;20172;-76
2023/03/11 00:41:02;;;;;;;1999.90;999.90;;;2.00;99.90;;;;;;6649935;89;20695;-76
2023/03/11 00:51:03;;;;;;;1999.90;999.90;;;1.90;99.90;;;;;;6646127;89;20198;-76
2023/03/11 01:01:07;;;;;;;1999.90;999.90;;;1.90;99.90;;;;;;6648015;89;20311;-76
2023/03/11 01:11:08;;;;;;;1999.90;999.90;;;1.90;99.90;;;;;;6648868;88;20682;-76
2023/03/11 01:21:09;;;;;;;1999.90;999.90;;;1.80;99.90;;;;;;6652326;89;20222;-76
2023/03/11 01:31:10;;;;;;;1999.90;999.90;;;1.60;99.90;;;;;;6651869;89;20499;-76
2023/03/11 01:41:11;;;;;;;1999.90;999.90;;;1.60;99.90;;;;;;6651655;89;20198;-76
2023/03/11 01:51:12;;;;;;;1999.90;999.90;;;1.70;99.90;;;;;;6651256;89;20207;-77
2023/03/11 02:01:13;;;;;;;1999.90;999.90;;;1.70;99.90;;;;;;6647960;89;20197;-76
2023/03/11 02:11:18;;;;;;;1999.90;999.90;;;1.70;99.90;;;;;;6650373;89;20196;-76
2023/03/11 02:21:28;;;;;;;1999.90;999.90;;;1.80;99.90;;;;;;6656590;89;21099;-76
2023/03/11 02:31:29;;;;;;;1999.90;999.90;;;1.70;99.90;;;;;;6649290;89;20644;-76
2023/03/11 02:41:31;;;;;;;1999.90;999.90;;;1.70;99.90;;;;;;6654837;89;20177;-76
2023/03/11 02:51:32;;;;;;;1999.90;999.90;;;1.70;99.90;;;;;;6649641;89;20632;-76
2023/03/11 03:02:14;;;;;;;1999.90;999.90;;;1.60;99.90;;;;;;6652607;76;20236;-77
2023/03/11 03:12:14;;;;;;;1999.90;999.90;;;1.50;99.90;;;;;;6725338;88;20240;-78
2023/03/11 03:22:15;;;;;;;1999.90;999.90;;;1.50;99.90;;;;;;6733804;88;20235;-78
2023/03/11 03:32:15;;;;;;;1999.90;999.90;;;1.40;99.90;;;;;;6724874;88;20193;-79
2023/03/11 03:42:16;;;;;;;1999.90;999.90;;;1.40;99.90;;;;;;6728874;88;20264;-79
2023/03/11 03:52:16;;;;;;;1999.90;999.90;;;1.20;99.90;;;;;;6724599;88;20756;-78
2023/03/11 04:02:17;;;;;;;1999.90;999.90;;;1.10;99.90;;;;;;6723749;88;20185;-76
2023/03/11 04:12:17;;;;;;;1999.90;999.90;;;1.00;99.90;;;;;;6731157;88;20215;-77
2023/03/11 04:22:18;;;;;;;1999.90;999.90;;;0.80;99.90;;;;;;6728170;88;20759;-76
2023/03/11 04:32:18;;;;;;;1999.90;999.90;;;0.70;99.90;;;;;;6729476;88;21083;-77
2023/03/11 04:42:19;;;;;;;1999.90;999.90;;;0.50;99.90;;;;;;6733195;88;20197;-77
2023/03/11 04:52:19;;;;;;;1999.90;999.90;;;0.30;99.90;;;;;;6730094;88;20330;-76
2023/03/11 05:02:20;;;;;;;1999.90;999.90;;;0.30;99.90;;;;;;6730437;88;20367;-77
2023/03/11 05:12:21;;;;;;;1999.90;999.90;;;0.30;99.90;;;;;;6736511;88;20213;-76
2023/03/11 05:22:21;;;;;;;1999.90;999.90;;;0.20;99.90;;;;;;6719951;88;20619;-77
2023/03/11 05:32:22;;;;;;;1999.90;999.90;;;0.20;99.90;;;;;;6725864;88;20202;-78
2023/03/11 05:42:23;;;;;;;1999.90;999.90;;;0.20;99.90;;;;;;6723070;88;20301;-76
2023/03/11 05:52:23;;;;;;;1999.90;999.90;;;0.00;99.90;;;;;;6732454;88;20639;-76
2023/03/11 06:02:24;;;;;;;1999.90;999.90;;;0.10;99.90;;;;;;6732574;88;20544;-76
2023/03/11 06:12:24;;;;;;;1999.90;999.90;;;0.20;99.90;;;;;;6731324;88;20215;-77
2023/03/11 06:22:25;;;;;;;1999.90;999.90;;;0.20;99.90;;;;;;6738260;88;20545;-76
2023/03/11 06:32:29;;;;;;;1999.90;999.90;;;0.30;99.90;;;;;;6732588;88;20194;-77
2023/03/11 06:42:29;;;;;;;1999.90;999.90;;;0.50;99.90;;;;;;6729088;88;20754;-76
2023/03/11 06:52:30;;;;;;;1999.90;999.90;;;0.70;99.90;;;;;;6728719;88;20224;-77
2023/03/11 07:02:30;;;;;;;1999.90;999.90;;;1.10;99.90;;;;;;6732237;88;20819;-77
2023/03/11 07:12:31;;;;;;;1999.90;999.90;;;1.30;99.90;;;;;;6730864;88;20238;-77
2023/03/11 07:22:31;;;;;;;1999.90;999.90;;;1.70;99.90;;;;;;6729510;88;20219;-77
2023/03/11 07:32:32;;;;;;;1999.90;999.90;;;1.80;99.90;;;;;;6730600;88;20194;-77
2023/03/11 07:42:33;;;;;;;1999.90;999.90;;;1.90;99.90;;;;;;6726004;88;20210;-78
2023/03/11 07:52:34;;;;;;;1999.90;999.90;;;2.00;99.90;;;;;;6722843;88;20235;-78
2023/03/11 08:02:34;;;;;;;1999.90;999.90;;;1.90;99.90;;;;;;6723351;88;20327;-78
2023/03/11 08:12:35;;;;;;;1999.90;999.90;;;2.20;99.90;;;;;;6724927;88;20318;-77
2023/03/11 08:22:35;;;;;;;1999.90;999.90;;;3.30;99.90;;;;;;6726206;88;20732;-78
2023/03/11 08:32:36;;;;;;;1999.90;999.90;;;4.20;99.90;;;;;;6724701;88;20984;-79
2023/03/11 08:42:36;;;;;;;1999.90;999.90;;;5.50;99.90;;;;;;6722539;88;20221;-78
2023/03/11 08:52:37;;;;;;;1999.90;999.90;;;6.30;99.90;;;;;;6726039;88;20279;-78
2023/03/11 09:02:38;;;;;;;1999.90;999.90;;;7.30;99.90;;;;;;6674341;76;20566;-76
2023/03/11 09:12:39;;;;;;;1999.90;999.90;;;6.70;99.90;;;;;;6649527;88;20660;-76
2023/03/11 09:22:40;;;;;;;1999.90;999.90;;;7.70;99.90;;;;;;6663997;88;20255;-76
2023/03/11 09:32:40;;;;;;;1999.90;999.90;;;8.00;99.90;;;;;;6657248;88;20212;-77
2023/03/11 09:43:18;;;;;;;1999.90;999.90;;;7.30;99.90;;;;;;6644781;88;20647;-76
2023/03/11 09:53:32;;;;;;;1999.90;999.90;;;6.60;99.90;;;;;;6638761;89;20628;-75
2023/03/11 10:03:34;;;;;;;1999.90;999.90;;;5.90;99.90;;;;;;6668854;88;20207;-76
2023/03/11 10:13:45;;;;;;;1999.90;999.90;;;5.90;99.00;;;;;;6635982;89;20254;-76
2023/03/11 10:24:14;;;;;;;1999.90;999.90;;;6.50;99.90;;;;;;6643522;88;20177;-77
2023/03/11 10:34:40;;;;;;;1999.90;999.90;;;9.00;99.80;;;;;;6674184;88;20211;-77
2023/03/11 10:44:42;;;;;;;1999.90;999.90;;;9.10;93.80;;;;;;6632640;88;20206;-77
2023/03/11 10:54:46;;;;;;;1999.90;999.90;;;7.30;96.10;;;;;;6627110;89;20638;-77
2023/03/11 11:04:49;;;;;;;1999.90;999.90;;;7.00;98.00;;;;;;6635589;88;20694;-77
2023/03/11 11:14:52;;;;;;;1999.90;999.90;;;8.40;97.10;;;;;;6651710;88;20331;-77
2023/03/11 11:24:54;;;;;;;1999.90;999.90;;;8.70;98.30;;;;;;6684488;88;20247;-77
2023/03/11 11:35:00;;;;;;;1999.90;999.90;;;8.30;96.20;;;;;;6684623;88;20205;-76
2023/03/11 11:45:30;;;;;;;1999.90;999.90;;;7.70;97.20;;;;;;6629955;89;20590;-75
2023/03/11 11:55:32;;;;;;;1999.90;999.90;;;7.00;97.90;;;;;;6661456;88;20201;-77
2023/03/11 12:05:42;;;;;;;1999.90;999.90;;;7.30;97.90;;;;;;6651181;88;20377;-77
2023/03/11 12:16:09;;;;;;;1999.90;999.90;;;7.70;98.20;;;;;;6671667;88;20196;-76
2023/03/11 12:26:14;;;;;;;1999.90;999.90;;;8.70;94.70;;;;;;6640563;88;20202;-77
2023/03/11 12:36:22;;;;;;;1999.90;999.90;;;9.10;93.80;;;;;;6642807;88;20204;-76
2023/03/11 12:46:57;;;;;;;1999.90;999.90;;;8.80;94.80;;;;;;6654587;88;20209;-76
2023/03/11 12:57:15;;;;;;;1999.90;999.90;;;8.70;94.30;;;;;;6688707;88;20734;-76
2023/03/11 13:07:21;;;;;;;1999.90;999.90;;;8.50;94.80;;;;;;6656602;88;20316;-77
2023/03/11 13:17:25;;;;;;;1999.90;999.90;;;9.10;95.10;;;;;;6645085;88;20204;-76
2023/03/11 13:27:38;;;;;;;1999.90;999.90;;;9.80;94.10;;;;;;6636598;88;20763;-76
2023/03/11 13:38:00;;;;;;;1999.90;999.90;;;9.80;93.70;;;;;;6639530;88;20189;-77
2023/03/11 13:48:15;;;;;;;1999.90;999.90;;;10.60;93.40;;;;;;6641574;88;20335;-77
2023/03/11 13:58:21;;;;;;;1999.90;999.90;;;10.90;93.40;;;;;;6675491;88;20370;-77
2023/03/11 14:08:25;;;;;;;1999.90;999.90;;;13.00;91.90;;;;;;6639487;89;20185;-77
2023/03/11 14:18:32;;;;;;;1999.90;999.90;;;12.80;89.40;;;;;;6676589;88;20627;-77
2023/03/11 14:28:35;;;;;;;1999.90;999.90;;;11.40;88.80;;;;;;6657757;88;20225;-77
2023/03/11 14:38:42;;;;;;;1999.90;999.90;;;10.00;91.80;;;;;;6651259;88;20303;-78
2023/03/11 14:48:43;;;;;;;1999.90;999.90;;;10.80;90.00;;;;;;6666692;88;20728;-77
2023/03/11 14:58:58;;;;;;;1999.90;999.90;;;11.80;90.50;;;;;;6699048;76;20177;-76
2023/03/11 15:09:15;;;;;;;1999.90;999.90;;;12.20;90.30;;;;;;6737327;88;20559;-76
2023/03/11 15:19:28;;;;;;;1999.90;999.90;;;11.80;89.60;;;;;;6737080;88;20214;-76
2023/03/11 15:29:30;;;;;;;1999.90;999.90;;;9.50;91.10;;;;;;6733810;88;20237;-77
2023/03/11 15:39:31;;;;;;;1999.90;999.90;;;8.50;92.30;;;;;;6734224;88;20271;-76
2023/03/11 15:49:32;;;;;;;1999.90;999.90;;;7.70;92.90;;;;;;6736763;88;20355;-77
2023/03/11 15:59:35;;;;;;;1999.90;999.90;;;8.00;93.00;;;;;;6733638;88;20197;-76
2023/03/11 16:09:36;;;;;;;1999.90;999.90;;;8.30;92.20;;;;;;6734025;88;20311;-76
2023/03/11 16:19:36;;;;;;;1999.90;999.90;;;8.60;92.50;;;;;;6735412;88;20264;-76
2023/03/11 16:29:37;;;;;;;1999.90;999.90;;;8.00;92.70;;;;;;6739788;88;20197;-76
2023/03/11 16:39:38;;;;;;;1999.90;999.90;;;8.10;94.10;;;;;;6743204;88;20169;-76
2023/03/11 16:49:38;;;;;;;1999.90;999.90;;;8.00;92.30;;;;;;6734935;88;20716;-75
2023/03/11 16:59:39;;;;;;;1999.90;999.90;;;7.80;94.60;;;;;;6735494;88;20188;-75
2023/03/11 17:09:40;;;;;;;1999.90;999.90;;;7.50;93.60;;;;;;6734624;88;20265;-77
2023/03/11 17:19:40;;;;;;;1999.90;999.90;;;7.00;94.50;;;;;;6734523;88;20228;-76
2023/03/11 17:29:41;;;;;;;1999.90;999.90;;;6.50;95.10;;;;;;6736320;88;20233;-76
2023/03/11 17:39:41;;;;;;;1999.90;999.90;;;6.00;95.90;;;;;;6735308;88;20220;-76
2023/03/11 17:49:42;;;;;;;1999.90;999.90;;;5.80;97.90;;;;;;6734953;88;20197;-77
2023/03/11 17:59:42;;;;;;;1999.90;999.90;;;5.30;96.60;;;;;;6738070;88;20213;-76
2023/03/11 18:09:43;;;;;;;1999.90;999.90;;;4.70;97.50;;;;;;6733947;88;20213;-76
2023/03/11 18:19:44;;;;;;;1999.90;999.90;;;4.40;99.20;;;;;;6740645;88;20255;-76
2023/03/11 18:29:44;;;;;;;1999.90;999.90;;;4.10;99.90;;;;;;6742618;88;20284;-75
2023/03/11 18:39:45;;;;;;;1999.90;999.90;;;3.80;99.90;;;;;;6739629;88;20203;-75
2023/03/11 18:49:45;;;;;;;1999.90;999.90;;;3.70;99.90;;;;;;6735366;88;20199;-75
2023/03/11 18:59:47;;;;;;;1999.90;999.90;;;3.20;99.90;;;;;;6741153;88;20210;-76
2023/03/11 19:09:48;;;;;;;1999.90;999.90;;;2.90;99.90;;;;;;6734914;88;20487;-75
2023/03/11 19:19:49;;;;;;;1999.90;999.90;;;2.80;99.90;;;;;;6730832;88;20262;-76
2023/03/11 19:29:49;;;;;;;1999.90;999.90;;;2.40;99.90;;;;;;6733561;88;20211;-76
2023/03/11 19:39:50;;;;;;;1999.90;999.90;;;2.30;99.90;;;;;;6734496;88;20181;-77
2023/03/11 19:49:50;;;;;;;1999.90;999.90;;;2.20;99.90;;;;;;6733976;88;20197;-78
2023/03/11 19:59:51;;;;;;;1999.90;999.90;;;2.20;99.90;;;;;;6739534;88;20742;-76
2023/03/11 20:09:51;;;;;;;1999.90;999.90;;;1.90;99.90;;;;;;6734771;88;20287;-77
2023/03/11 20:19:52;;;;;;;1999.90;999.90;;;1.60;99.90;;;;;;6734666;88;20252;-75
2023/03/11 20:29:53;;;;;;;1999.90;999.90;;;1.50;99.90;;;;;;6730678;88;20197;-76
2023/03/11 20:39:53;;;;;;;1999.90;999.90;;;1.40;99.90;;;;;;6733904;88;20205;-77
2023/03/11 20:49:55;;;;;;;1999.90;999.90;;;1.20;99.90;;;;;;6738295;88;20214;-78
2023/03/11 21:11:01;;;;;;;1999.90;999.90;;;1.00;99.90;;;;;;6672408;88;20175;-77
2023/03/11 21:21:02;;;;;;;1999.90;999.90;;;0.80;99.90;;;;;;6675216;89;20196;-77
2023/03/11 21:31:14;;;;;;;1999.90;999.90;;;0.70;99.90;;;;;;6670801;89;20619;-76
2023/03/11 21:41:17;;;;;;;1999.90;999.90;;;0.60;99.90;;;;;;6672546;89;20191;-76
2023/03/11 21:51:18;;;;;;;1999.90;999.90;;;0.50;99.90;;;;;;6668537;89;20329;-76
2023/03/11 22:01:19;;;;;;;1999.90;999.90;;;0.40;99.90;;;;;;6668876;89;20256;-77
2023/03/11 22:11:19;;;;;;;1999.90;999.90;;;0.40;99.90;;;;;;6681121;89;20225;-76
2023/03/11 22:21:20;;;;;;;1999.90;999.90;;;0.70;99.90;;;;;;6686925;89;20222;-77
2023/03/11 22:31:21;;;;;;;1999.90;999.90;;;0.90;99.90;;;;;;6678184;88;20256;-76
2023/03/11 22:41:21;;;;;;;1999.90;999.90;;;1.00;99.90;;;;;;6669374;88;20314;-77
2023/03/11 22:51:22;;;;;;;1999.90;999.90;;;1.00;99.90;;;;;;6669552;89;20761;-77
2023/03/11 23:01:22;;;;;;;1999.90;999.90;;;1.10;99.90;;;;;;6669223;89;20545;-76
2023/03/11 23:11:23;;;;;;;1999.90;999.90;;;1.10;99.90;;;;;;6670701;89;20219;-77
2023/03/11 23:21:29;;;;;;;1999.90;999.90;;;1.20;99.90;;;;;;6667551;89;20211;-77
2023/03/11 23:31:30;;;;;;;1999.90;999.90;;;1.30;99.90;;;;;;6670017;89;20187;-76
2023/03/11 23:41:31;;;;;;;1999.90;999.90;;;1.50;99.90;;;;;;6669279;88;20278;-76
2023/03/11 23:51:31;;;;;;;1999.90;999.90;;;1.60;99.90;;;;;;6670116;89;20775;-76
